Time;durP1;ratioP1;P1;durP2;ratioP2;P2;SDS_P1;SDS_P2;PMS_P1;PMS_P2;Temp;Humidity;BMP_temperature;BMP_pressure;BME280_temperature;BME280_humidity;BME280_pressure;Samples;Min_cycle;Max_cycle;Signal;HPM_P1;HPM_P2
2024/04/03 00:00:52;;;;;;;22.27;6.95;;;10.30;99.90;;;;;;5044111;28;20507;-62
2024/04/03 00:03:18;;;;;;;23.35;6.18;;;10.40;99.90;;;;;;5041846;28;20047;-62
2024/04/03 00:05:44;;;;;;;23.25;7.13;;;10.30;99.90;;;;;;5043715;28;20514;-62
2024/04/03 00:08:10;;;;;;;18.13;6.07;;;10.40;99.90;;;;;;5042600;28;20041;-63
2024/04/03 00:10:35;;;;;;;21.60;6.93;;;10.40;99.90;;;;;;5040489;28;20085;-62
2024/04/03 00:13:01;;;;;;;18.65;6.25;;;10.40;99.90;;;;;;5042489;28;20037;-62
2024/04/03 00:15:27;;;;;;;16.73;6.47;;;10.30;99.90;;;;;;5037870;28;20305;-62
2024/04/03 00:17:53;;;;;;;23.33;6.68;;;10.40;99.90;;;;;;5043015;28;20037;-62
2024/04/03 00:20:22;;;;;;;24.02;7.20;;;10.60;99.90;;;;;;5041520;28;20043;-62
2024/04/03 00:22:48;;;;;;;23.67;6.68;;;10.40;99.90;;;;;;5043515;28;20057;-62
2024/04/03 00:25:14;;;;;;;20.88;6.60;;;10.40;99.90;;;;;;5044896;28;20051;-64
2024/04/03 00:27:40;;;;;;;17.55;6.00;;;10.50;99.90;;;;;;5040020;28;20041;-62
2024/04/03 00:30:06;;;;;;;17.77;7.43;;;10.50;99.90;;;;;;5039563;28;20299;-63
2024/04/03 00:32:33;;;;;;;21.58;6.95;;;10.50;99.90;;;;;;5043456;28;20161;-62
2024/04/03 00:34:59;;;;;;;16.70;6.65;;;10.50;99.90;;;;;;5038463;28;20041;-62
2024/04/03 00:37:25;;;;;;;17.33;6.85;;;10.50;99.90;;;;;;5038321;28;20412;-63
2024/04/03 00:39:54;;;;;;;24.23;7.05;;;10.50;99.90;;;;;;5041195;28;20181;-62
2024/04/03 00:42:20;;;;;;;26.45;7.25;;;10.50;99.90;;;;;;5039225;28;20064;-62
2024/04/03 00:44:50;;;;;;;23.65;6.55;;;10.50;99.90;;;;;;5041974;28;20045;-61
2024/04/03 00:47:16;;;;;;;22.88;7.47;;;10.60;99.90;;;;;;5035496;28;20363;-62
2024/04/03 00:49:46;;;;;;;25.50;7.38;;;10.50;99.90;;;;;;5040034;28;20609;-61
2024/04/03 00:52:13;;;;;;;16.40;6.53;;;10.50;99.90;;;;;;5041974;28;20522;-61
2024/04/03 00:54:43;;;;;;;21.15;6.35;;;10.50;99.90;;;;;;5038590;28;20145;-61
2024/04/03 00:57:11;;;;;;;21.27;6.50;;;10.50;99.90;;;;;;5038797;28;20075;-61
2024/04/03 00:59:37;;;;;;;21.90;6.75;;;10.50;99.90;;;;;;5040967;28;20047;-61
2024/04/03 01:02:03;;;;;;;20.17;6.20;;;10.60;99.90;;;;;;5040251;28;20037;-61
2024/04/03 01:04:29;;;;;;;19.33;6.68;;;10.50;99.90;;;;;;5045526;28;20070;-61
2024/04/03 01:06:55;;;;;;;18.92;6.15;;;10.60;99.90;;;;;;5040114;28;20283;-61
2024/04/03 01:09:20;;;;;;;25.02;6.68;;;10.60;99.90;;;;;;5039314;28;20067;-61
2024/04/03 01:11:46;;;;;;;17.08;7.13;;;10.60;99.90;;;;;;5036737;28;20044;-61
2024/04/03 01:14:13;;;;;;;20.95;6.82;;;10.60;99.90;;;;;;5038473;28;20561;-61
2024/04/03 01:16:42;;;;;;;20.95;6.78;;;10.60;99.90;;;;;;5037485;28;20082;-61
2024/04/03 01:19:08;;;;;;;22.20;7.03;;;10.60;99.90;;;;;;5037560;28;20518;-62
2024/04/03 01:21:34;;;;;;;26.98;7.10;;;10.50;99.90;;;;;;5036602;28;20041;-61
2024/04/03 01:23:59;;;;;;;21.40;7.00;;;10.50;99.90;;;;;;5041161;28;20599;-62
2024/04/03 01:26:27;;;;;;;23.70;7.30;;;10.60;99.90;;;;;;5041933;28;20043;-61
2024/04/03 01:28:53;;;;;;;25.25;7.63;;;10.50;99.90;;;;;;5036987;28;20045;-61
2024/04/03 01:31:18;;;;;;;25.48;7.15;;;10.60;99.90;;;;;;5039566;28;20411;-62
2024/04/03 01:33:44;;;;;;;30.73;8.38;;;10.60;99.90;;;;;;5041608;28;20045;-62
2024/04/03 01:36:10;;;;;;;28.77;7.82;;;10.60;99.90;;;;;;5042770;28;20046;-62
2024/04/03 01:38:36;;;;;;;33.33;9.05;;;10.50;99.90;;;;;;5046651;28;20037;-62
2024/04/03 01:41:01;;;;;;;29.70;7.70;;;10.60;99.90;;;;;;5051993;28;20040;-62
2024/04/03 01:43:27;;;;;;;22.35;7.32;;;10.50;99.90;;;;;;5041941;28;20483;-62
2024/04/03 01:45:57;;;;;;;28.17;8.38;;;10.50;99.90;;;;;;5047681;28;20040;-62
2024/04/03 01:48:23;;;;;;;29.13;7.53;;;10.50;99.90;;;;;;5046732;28;20040;-61
2024/04/03 01:50:49;;;;;;;20.80;7.68;;;10.50;99.90;;;;;;5043634;28;20392;-61
2024/04/03 01:53:15;;;;;;;26.98;7.43;;;10.40;99.90;;;;;;5046216;28;20103;-61
2024/04/03 01:55:40;;;;;;;24.75;7.32;;;10.40;99.90;;;;;;5045572;28;20059;-61
2024/04/03 01:58:06;;;;;;;29.20;8.63;;;10.50;99.90;;;;;;5046026;28;20076;-61
2024/04/03 02:00:32;;;;;;;27.23;7.78;;;10.50;99.90;;;;;;5046768;28;20090;-61
2024/04/03 02:02:58;;;;;;;27.17;8.25;;;10.40;99.90;;;;;;5047793;28;20045;-62
2024/04/03 02:05:24;;;;;;;29.77;9.23;;;10.40;99.90;;;;;;5046345;28;20044;-61
2024/04/03 02:07:50;;;;;;;25.95;8.55;;;10.40;99.90;;;;;;5043452;28;20456;-61
2024/04/03 02:10:16;;;;;;;25.48;7.88;;;10.40;99.90;;;;;;5050788;28;20073;-61
2024/04/03 02:12:42;;;;;;;23.98;7.75;;;10.40;99.90;;;;;;5046327;28;20112;-61
2024/04/03 02:15:07;;;;;;;26.38;8.00;;;10.40;99.90;;;;;;5053313;28;20037;-61
2024/04/03 02:17:33;;;;;;;26.88;7.25;;;10.40;99.90;;;;;;5045761;28;20064;-62
2024/04/03 02:19:59;;;;;;;30.23;6.97;;;10.30;99.90;;;;;;5041404;28;20169;-61
2024/04/03 02:22:26;;;;;;;27.50;6.93;;;10.40;99.90;;;;;;5044016;28;20049;-61
2024/04/03 02:24:51;;;;;;;32.20;8.73;;;10.40;99.90;;;;;;5047225;28;20099;-62
2024/04/03 02:27:17;;;;;;;33.92;8.38;;;10.40;99.90;;;;;;5039690;28;20064;-61
2024/04/03 02:29:43;;;;;;;28.15;7.57;;;10.10;99.90;;;;;;5041251;28;20381;-61
2024/04/03 02:32:08;;;;;;;19.45;6.40;;;10.20;99.90;;;;;;5039089;28;20512;-61
2024/04/03 02:34:34;;;;;;;30.23;7.78;;;10.30;99.90;;;;;;5042012;28;20163;-62
2024/04/03 02:37:00;;;;;;;26.75;7.47;;;10.20;99.90;;;;;;5043378;28;20211;-62
2024/04/03 02:39:26;;;;;;;36.80;8.10;;;10.20;99.90;;;;;;5044949;28;20064;-61
2024/04/03 02:41:51;;;;;;;22.85;6.32;;;10.20;99.90;;;;;;5052291;28;20461;-62
2024/04/03 02:44:17;;;;;;;22.48;6.38;;;10.10;99.90;;;;;;5045680;28;20583;-61
2024/04/03 02:46:43;;;;;;;30.17;7.82;;;10.20;99.90;;;;;;5049156;28;20049;-62
2024/04/03 02:49:09;;;;;;;26.08;7.00;;;10.00;99.90;;;;;;5043049;28;20150;-62
2024/04/03 02:51:35;;;;;;;22.95;6.85;;;10.00;99.90;;;;;;5043360;28;20156;-62
2024/04/03 02:54:01;;;;;;;24.45;5.93;;;10.10;99.90;;;;;;5047050;28;20036;-61
2024/04/03 02:56:26;;;;;;;19.25;5.82;;;10.00;99.90;;;;;;5049166;28;20037;-62
2024/04/03 02:58:52;;;;;;;22.10;6.40;;;10.00;99.90;;;;;;5043210;28;20029;-62
2024/04/03 03:01:18;;;;;;;20.75;6.55;;;10.00;99.90;;;;;;5042179;28;20562;-61
2024/04/03 03:03:44;;;;;;;22.55;6.78;;;9.90;99.90;;;;;;5043638;28;20048;-62
2024/04/03 03:06:10;;;;;;;19.92;6.18;;;10.00;99.90;;;;;;5035041;28;20041;-62
2024/04/03 03:08:35;;;;;;;24.15;6.05;;;9.90;99.90;;;;;;5041598;28;20037;-61
2024/04/03 03:11:03;;;;;;;28.63;6.47;;;9.90;99.90;;;;;;5039890;28;20040;-62
2024/04/03 03:13:29;;;;;;;23.13;6.10;;;9.90;99.90;;;;;;5043874;28;20214;-62
2024/04/03 03:15:57;;;;;;;29.10;6.50;;;9.80;99.90;;;;;;5047320;28;20071;-61
2024/04/03 03:18:25;;;;;;;19.48;6.70;;;9.90;99.90;;;;;;5052206;28;20045;-62
2024/04/03 03:20:51;;;;;;;21.77;5.63;;;9.90;99.90;;;;;;5035427;28;20033;-62
2024/04/03 03:23:17;;;;;;;28.30;7.53;;;9.90;99.90;;;;;;5044364;28;20592;-61
2024/04/03 03:25:45;;;;;;;26.80;7.43;;;9.80;99.90;;;;;;5043290;28;20045;-61
2024/04/03 03:28:11;;;;;;;26.52;6.38;;;9.80;99.90;;;;;;5046706;28;20033;-62
2024/04/03 03:30:37;;;;;;;24.23;5.68;;;9.80;99.90;;;;;;5039206;28;20043;-63
2024/04/03 03:33:04;;;;;;;22.45;5.97;;;9.80;99.90;;;;;;5045182;28;20208;-62
2024/04/03 03:35:30;;;;;;;14.90;5.53;;;9.80;99.90;;;;;;5043989;28;20052;-62
2024/04/03 03:37:56;;;;;;;24.92;6.47;;;9.90;99.90;;;;;;5050532;28;20043;-62
2024/04/03 03:40:22;;;;;;;28.77;7.07;;;9.80;99.90;;;;;;5037167;28;20033;-62
2024/04/03 03:42:48;;;;;;;23.13;6.15;;;9.90;99.90;;;;;;5046569;28;20076;-62
2024/04/03 03:45:18;;;;;;;16.02;5.45;;;9.80;99.90;;;;;;5034292;28;20076;-62
2024/04/03 03:47:44;;;;;;;24.15;7.15;;;9.90;99.90;;;;;;5043331;28;20080;-62
2024/04/03 03:52:54;;;;;;;26.17;6.43;;;9.90;99.90;;;;;;5039699;28;20045;-62
2024/04/03 03:55:20;;;;;;;24.33;7.50;;;9.80;99.90;;;;;;5039222;28;20052;-61
2024/04/03 03:57:45;;;;;;;22.90;7.28;;;9.80;99.90;;;;;;5051055;28;20178;-63
2024/04/03 04:00:12;;;;;;;21.63;7.00;;;9.80;99.90;;;;;;5046698;28;20312;-62
2024/04/03 04:02:37;;;;;;;27.95;6.15;;;9.80;99.90;;;;;;5045724;28;20120;-62
2024/04/03 04:05:03;;;;;;;17.70;6.95;;;9.70;99.90;;;;;;5043242;28;20159;-62
2024/04/03 04:07:29;;;;;;;22.98;7.38;;;9.90;99.90;;;;;;5037521;28;20045;-62
2024/04/03 04:09:55;;;;;;;19.70;6.97;;;9.70;99.90;;;;;;5045144;28;20121;-62
2024/04/03 04:12:21;;;;;;;24.45;7.38;;;9.70;99.90;;;;;;5043324;28;20558;-63
2024/04/03 04:14:53;;;;;;;22.45;7.40;;;9.60;99.90;;;;;;5041375;28;20036;-62
2024/04/03 04:17:22;;;;;;;25.95;7.43;;;9.60;99.90;;;;;;5044021;28;20855;-62
2024/04/03 04:19:49;;;;;;;21.58;7.00;;;9.50;99.90;;;;;;5040526;28;20120;-62
2024/04/03 04:22:15;;;;;;;22.17;7.35;;;9.70;99.90;;;;;;5043314;28;20492;-62
2024/04/03 04:24:44;;;;;;;26.35;7.63;;;9.60;99.90;;;;;;5041945;28;20061;-62
2024/04/03 04:27:11;;;;;;;26.52;7.95;;;9.60;99.90;;;;;;5045444;28;20527;-62
2024/04/03 04:29:37;;;;;;;27.63;7.57;;;9.60;99.90;;;;;;5042582;28;20090;-62
2024/04/03 04:32:10;;;;;;;22.40;7.57;;;9.60;99.90;;;;;;5043444;28;20110;-62
2024/04/03 04:34:42;;;;;;;24.70;7.75;;;9.70;99.90;;;;;;5042760;28;20037;-62
2024/04/03 04:37:08;;;;;;;23.10;7.18;;;9.70;99.90;;;;;;5043912;28;20033;-62
2024/04/03 04:39:35;;;;;;;20.10;7.40;;;9.60;99.90;;;;;;5042744;28;20052;-62
2024/04/03 04:42:01;;;;;;;22.83;7.75;;;9.60;99.90;;;;;;5042211;28;20044;-62
2024/04/03 04:44:27;;;;;;;25.73;7.30;;;9.70;99.90;;;;;;5041779;28;20040;-62
2024/04/03 04:46:58;;;;;;;16.83;6.93;;;9.50;99.90;;;;;;5040221;28;20051;-62
2024/04/03 04:49:24;;;;;;;20.35;7.18;;;9.60;99.90;;;;;;5042425;28;20542;-63
2024/04/03 04:51:50;;;;;;;25.08;7.45;;;9.70;99.90;;;;;;5041879;28;20041;-63
2024/04/03 04:54:17;;;;;;;26.25;8.07;;;9.50;99.90;;;;;;5041171;28;20723;-62
2024/04/03 04:56:46;;;;;;;18.48;7.35;;;9.60;99.90;;;;;;5039858;28;20108;-63
2024/04/03 04:59:13;;;;;;;27.25;9.05;;;9.50;99.90;;;;;;5036504;28;20505;-62
2024/04/03 05:01:39;;;;;;;22.35;7.72;;;9.60;99.90;;;;;;5037780;28;20048;-63
2024/04/03 05:04:06;;;;;;;22.35;7.97;;;9.60;99.90;;;;;;5033188;28;20045;-62
2024/04/03 05:06:32;;;;;;;32.92;10.55;;;9.50;99.90;;;;;;5035962;28;20184;-62
2024/04/03 05:08:58;;;;;;;20.42;9.00;;;9.70;99.90;;;;;;5035446;28;20156;-62
2024/04/03 05:11:24;;;;;;;18.85;8.15;;;9.60;99.90;;;;;;5036098;28;20044;-63
2024/04/03 05:13:50;;;;;;;25.00;9.23;;;9.60;99.90;;;;;;5036293;28;20044;-62
2024/04/03 05:16:22;;;;;;;22.55;8.60;;;9.60;99.90;;;;;;5067937;28;20075;-62
2024/04/03 05:18:50;;;;;;;33.72;9.20;;;9.70;99.90;;;;;;5033851;28;20036;-62
2024/04/03 05:21:17;;;;;;;23.52;8.38;;;9.60;99.90;;;;;;5034404;28;20045;-62
2024/04/03 05:23:43;;;;;;;23.83;9.70;;;9.60;99.90;;;;;;5034479;28;20091;-63
2024/04/03 05:26:13;;;;;;;21.15;9.02;;;9.60;99.90;;;;;;5036642;28;20037;-62
2024/04/03 05:28:40;;;;;;;20.67;9.80;;;9.70;99.90;;;;;;5037667;28;20045;-62
2024/04/03 05:31:07;;;;;;;21.63;10.02;;;9.60;99.90;;;;;;5036466;28;20041;-62
2024/04/03 05:33:33;;;;;;;23.00;9.35;;;9.60;99.90;;;;;;5037289;28;20522;-63
2024/04/03 05:36:03;;;;;;;25.05;9.60;;;9.60;99.90;;;;;;5036787;28;20044;-62
2024/04/03 05:38:29;;;;;;;20.83;9.80;;;9.60;99.90;;;;;;5030493;28;20569;-63
2024/04/03 05:40:56;;;;;;;25.70;9.98;;;9.60;99.90;;;;;;5036772;28;20357;-62
2024/04/03 05:43:23;;;;;;;20.38;9.90;;;9.60;99.90;;;;;;5035059;28;20073;-63
2024/04/03 05:45:53;;;;;;;22.23;10.88;;;9.70;99.90;;;;;;5036272;28;20041;-62
2024/04/03 05:48:21;;;;;;;17.83;10.20;;;9.60;99.90;;;;;;5037918;28;20583;-62
2024/04/03 05:50:47;;;;;;;25.13;11.27;;;9.80;99.90;;;;;;5037168;28;20041;-63
2024/04/03 05:53:13;;;;;;;19.45;10.00;;;9.60;99.90;;;;;;5037453;28;20041;-64
2024/04/03 05:55:38;;;;;;;21.35;10.15;;;9.70;99.90;;;;;;5039057;28;20071;-63
2024/04/03 05:58:04;;;;;;;25.52;10.38;;;9.70;99.90;;;;;;5032450;28;20041;-63
2024/04/03 06:00:30;;;;;;;22.05;9.98;;;9.70;99.90;;;;;;5033898;28;20231;-63
2024/04/03 06:02:56;;;;;;;19.50;10.45;;;9.70;99.90;;;;;;5036271;28;20472;-63
2024/04/03 06:05:21;;;;;;;19.13;10.40;;;9.70;99.90;;;;;;5036816;28;20072;-64
2024/04/03 06:07:49;;;;;;;21.98;10.45;;;9.70;99.90;;;;;;5038354;28;20040;-63
2024/04/03 06:10:16;;;;;;;25.33;11.93;;;9.70;99.90;;;;;;5035672;28;20044;-63
2024/04/03 06:12:42;;;;;;;25.20;12.13;;;9.80;99.90;;;;;;5037761;28;20048;-63
2024/04/03 06:15:08;;;;;;;23.27;11.00;;;9.70;99.90;;;;;;5037443;28;20063;-63
2024/04/03 06:17:34;;;;;;;25.73;12.63;;;9.60;99.90;;;;;;5038042;28;20492;-63
2024/04/03 06:20:01;;;;;;;24.35;12.93;;;9.70;99.90;;;;;;5037635;28;20742;-62
2024/04/03 06:22:27;;;;;;;26.27;12.48;;;9.70;99.90;;;;;;5031864;28;20610;-63
2024/04/03 06:24:52;;;;;;;26.13;12.57;;;9.80;99.90;;;;;;5038401;28;20037;-63
2024/04/03 06:27:18;;;;;;;21.33;12.05;;;9.80;99.90;;;;;;5037619;28;20071;-63
2024/04/03 06:29:44;;;;;;;28.40;14.00;;;9.70;99.90;;;;;;5038051;28;20324;-63
2024/04/03 06:32:11;;;;;;;23.55;12.18;;;9.80;99.90;;;;;;5042412;28;20102;-63
2024/04/03 06:34:36;;;;;;;19.60;11.98;;;9.70;99.90;;;;;;5042174;28;20414;-63
2024/04/03 06:37:02;;;;;;;20.23;12.52;;;9.70;99.90;;;;;;5042631;28;20120;-63
2024/04/03 06:39:28;;;;;;;21.60;11.60;;;9.80;99.90;;;;;;5035154;28;20463;-64
2024/04/03 06:41:54;;;;;;;25.20;12.48;;;9.60;99.90;;;;;;5040850;28;20040;-63
2024/04/03 06:44:19;;;;;;;26.45;12.27;;;9.70;99.90;;;;;;5041402;28;20431;-62
2024/04/03 06:46:46;;;;;;;24.10;11.98;;;9.70;99.90;;;;;;5041772;28;20163;-63
2024/04/03 06:49:12;;;;;;;22.30;11.43;;;9.60;99.90;;;;;;5041788;28;20045;-63
2024/04/03 06:51:38;;;;;;;26.38;13.90;;;9.70;99.90;;;;;;5038380;28;20389;-63
2024/04/03 06:54:07;;;;;;;17.80;11.85;;;9.70;99.90;;;;;;5040657;28;20495;-63
2024/04/03 06:56:33;;;;;;;21.30;11.23;;;9.70;99.90;;;;;;5038916;28;20041;-63
2024/04/03 06:58:59;;;;;;;21.30;12.13;;;9.80;99.90;;;;;;5037239;28;20029;-63
2024/04/03 07:01:25;;;;;;;21.25;12.18;;;9.60;99.90;;;;;;5035077;28;20032;-62
2024/04/03 07:03:53;;;;;;;19.67;11.40;;;9.70;99.90;;;;;;5038857;28;20415;-62
2024/04/03 07:06:19;;;;;;;21.63;10.90;;;9.80;99.90;;;;;;5038505;28;20505;-63
2024/04/03 07:08:45;;;;;;;21.48;12.20;;;9.70;99.90;;;;;;5041467;28;20254;-62
2024/04/03 07:11:11;;;;;;;23.55;11.60;;;9.80;99.90;;;;;;5039939;28;20053;-62
2024/04/03 07:13:37;;;;;;;16.65;10.70;;;9.80;99.90;;;;;;5039730;28;20506;-62
2024/04/03 07:16:04;;;;;;;16.30;10.25;;;9.90;99.90;;;;;;5037533;28;20083;-63
2024/04/03 07:18:30;;;;;;;18.02;10.65;;;9.70;99.90;;;;;;5039743;28;20136;-62
2024/04/03 07:20:57;;;;;;;21.33;11.27;;;9.90;99.90;;;;;;5039213;28;20064;-63
2024/04/03 07:23:27;;;;;;;20.13;11.45;;;9.80;99.90;;;;;;5066644;28;20143;-63
2024/04/03 07:25:57;;;;;;;21.10;11.70;;;9.80;99.90;;;;;;5032460;28;20044;-62
2024/04/03 07:28:24;;;;;;;19.33;12.25;;;9.90;99.90;;;;;;5036196;28;20348;-62
2024/04/03 07:30:50;;;;;;;23.13;11.98;;;9.90;99.90;;;;;;5037938;28;20045;-62
2024/04/03 07:33:16;;;;;;;21.98;12.38;;;9.90;99.90;;;;;;5038245;28;20656;-62
2024/04/03 07:35:42;;;;;;;20.77;12.30;;;10.00;99.90;;;;;;5036287;28;20539;-62
2024/04/03 07:38:08;;;;;;;23.23;11.85;;;10.00;99.90;;;;;;5034650;28;20033;-62
2024/04/03 07:40:37;;;;;;;21.30;11.57;;;9.90;99.90;;;;;;5038149;28;20041;-63
2024/04/03 07:43:03;;;;;;;24.35;12.90;;;10.00;99.90;;;;;;5037419;28;20049;-62
2024/04/03 07:45:29;;;;;;;19.08;12.50;;;10.00;99.90;;;;;;5038225;28;20041;-62
2024/04/03 07:47:58;;;;;;;20.25;12.10;;;10.10;99.90;;;;;;5037735;28;20534;-63
2024/04/03 07:50:24;;;;;;;;;;;10.00;99.90;;;;;;5039347;28;20320;-62
2024/04/03 07:52:50;;;;;;;19.50;12.27;;;10.20;99.90;;;;;;5038578;28;20239;-63
2024/04/03 07:55:16;;;;;;;18.15;11.63;;;10.20;99.90;;;;;;5039215;28;20408;-62
2024/04/03 07:57:42;;;;;;;19.88;11.38;;;10.20;99.90;;;;;;5038532;28;20037;-63
2024/04/03 08:00:09;;;;;;;18.45;12.20;;;10.30;99.90;;;;;;5040311;28;20036;-63
2024/04/03 08:02:37;;;;;;;21.42;12.43;;;10.30;99.90;;;;;;5038808;28;20116;-63
2024/04/03 08:05:04;;;;;;;19.25;12.30;;;10.30;99.90;;;;;;5038003;28;20542;-62
2024/04/03 08:07:30;;;;;;;21.35;12.02;;;10.40;99.90;;;;;;5039345;28;20158;-62
2024/04/03 08:09:55;;;;;;;18.80;12.00;;;10.40;99.90;;;;;;5040952;28;20236;-63
2024/04/03 08:12:21;;;;;;;15.73;11.32;;;10.50;99.90;;;;;;5038435;28;20404;-62
2024/04/03 08:14:47;;;;;;;16.65;11.45;;;10.50;99.90;;;;;;5039154;28;20071;-63
2024/04/03 08:17:12;;;;;;;19.17;11.57;;;10.60;99.90;;;;;;5037950;28;20815;-62
2024/04/03 08:19:38;;;;;;;15.05;11.45;;;10.60;99.90;;;;;;5038747;28;20036;-63
2024/04/03 08:22:05;;;;;;;16.17;11.45;;;10.70;99.90;;;;;;5039063;28;20040;-63
2024/04/03 08:24:33;;;;;;;13.82;10.18;;;10.60;99.90;;;;;;5039366;28;20055;-63
2024/04/03 08:26:59;;;;;;;16.38;11.70;;;10.70;99.90;;;;;;5039244;28;20561;-62
2024/04/03 08:29:25;;;;;;;14.65;9.85;;;10.70;99.90;;;;;;5038047;28;20127;-62
2024/04/03 08:31:51;;;;;;;14.82;9.70;;;10.70;99.90;;;;;;5038284;28;20515;-62
2024/04/03 08:34:17;;;;;;;11.50;9.75;;;10.70;99.90;;;;;;5039061;28;20036;-62
2024/04/03 08:36:42;;;;;;;14.18;9.20;;;10.70;99.90;;;;;;5038967;28;20448;-63
2024/04/03 08:39:08;;;;;;;14.75;9.48;;;10.70;99.90;;;;;;5039033;28;20120;-63
2024/04/03 08:41:34;;;;;;;13.82;8.80;;;10.60;99.90;;;;;;5037810;28;20045;-62
2024/04/03 08:44:00;;;;;;;12.55;8.90;;;10.80;99.90;;;;;;5038836;28;20126;-63
2024/04/03 08:46:29;;;;;;;12.43;8.82;;;10.70;99.90;;;;;;5040453;28;20404;-63
2024/04/03 08:48:56;;;;;;;13.23;9.38;;;10.70;99.90;;;;;;5038219;28;20615;-63
2024/04/03 08:51:28;;;;;;;15.18;9.98;;;10.80;99.90;;;;;;5038358;28;20055;-62
2024/04/03 08:54:05;;;;;;;15.35;10.00;;;10.70;99.90;;;;;;5037535;28;20043;-62
2024/04/03 08:56:31;;;;;;;12.07;8.70;;;10.70;99.90;;;;;;5036130;28;20049;-62
2024/04/03 08:58:59;;;;;;;13.52;8.20;;;10.80;99.90;;;;;;5037774;28;20539;-62
2024/04/03 09:01:25;;;;;;;13.52;9.05;;;10.80;99.90;;;;;;5037939;28;20049;-62
2024/04/03 09:03:51;;;;;;;11.75;8.23;;;10.80;99.90;;;;;;5036922;28;20097;-62
2024/04/03 09:06:16;;;;;;;10.30;8.05;;;10.80;99.90;;;;;;5037834;28;20128;-62
2024/04/03 09:08:43;;;;;;;10.65;7.68;;;10.80;99.90;;;;;;5037784;28;20391;-63
2024/04/03 09:11:11;;;;;;;8.60;6.43;;;11.00;99.90;;;;;;5039000;28;20045;-63
2024/04/03 09:13:36;;;;;;;8.75;7.00;;;11.10;99.90;;;;;;5038888;28;20072;-62
2024/04/03 09:16:03;;;;;;;8.80;5.93;;;11.10;99.90;;;;;;5038891;28;20178;-62
2024/04/03 09:18:29;;;;;;;9.43;6.43;;;11.20;99.90;;;;;;5038195;28;20065;-62
2024/04/03 09:20:55;;;;;;;7.53;6.15;;;11.30;99.90;;;;;;5037811;28;20541;-63
2024/04/03 09:23:21;;;;;;;10.20;6.43;;;11.30;99.90;;;;;;5037483;28;20052;-63
2024/04/03 09:25:50;;;;;;;10.18;6.07;;;11.50;99.90;;;;;;5038918;28;20040;-62
2024/04/03 09:28:16;;;;;;;6.40;5.68;;;11.50;99.90;;;;;;5038092;28;20551;-62
2024/04/03 09:30:49;;;;;;;7.93;5.75;;;11.60;99.90;;;;;;5039633;28;20051;-63
2024/04/03 09:33:18;;;;;;;6.40;5.40;;;11.60;99.90;;;;;;5037424;28;20051;-62
2024/04/03 09:35:44;;;;;;;8.25;5.50;;;11.70;99.90;;;;;;5037714;28;20087;-62
2024/04/03 09:38:10;;;;;;;9.18;5.05;;;11.80;99.90;;;;;;5038487;28;20045;-62
2024/04/03 09:40:37;;;;;;;6.97;5.10;;;11.90;99.90;;;;;;5039984;28;20049;-62
2024/04/03 09:43:06;;;;;;;6.60;4.20;;;11.90;99.90;;;;;;5037241;28;20220;-62
2024/04/03 09:45:32;;;;;;;5.00;4.18;;;11.80;99.90;;;;;;5038337;28;20106;-62
2024/04/03 09:47:59;;;;;;;8.25;4.07;;;11.90;99.90;;;;;;5038600;28;20045;-62
2024/04/03 09:50:44;;;;;;;5.95;4.28;;;12.00;99.90;;;;;;5038323;28;20045;-62
2024/04/03 09:53:22;;;;;;;8.63;4.28;;;11.90;99.90;;;;;;5036180;28;20099;-62
2024/04/03 09:55:50;;;;;;;5.40;4.60;;;12.00;99.90;;;;;;5038394;28;20048;-62
2024/04/03 09:58:21;;;;;;;8.18;4.47;;;12.00;99.90;;;;;;5037261;28;20049;-62
2024/04/03 10:00:58;;;;;;;6.50;4.10;;;12.10;99.90;;;;;;5037298;28;20495;-62
2024/04/03 10:03:27;;;;;;;8.65;4.78;;;12.00;99.90;;;;;;5038301;28;20067;-62
2024/04/03 10:06:00;;;;;;;6.97;4.72;;;12.10;99.90;;;;;;5041973;28;20157;-62
2024/04/03 10:08:40;;;;;;;5.60;4.25;;;12.10;99.90;;;;;;5040979;28;20125;-62
2024/04/03 10:11:07;;;;;;;;;;;12.10;99.90;;;;;;5039556;28;20504;-63
2024/04/03 10:13:40;;;;;;;6.13;3.75;;;12.10;99.90;;;;;;5041545;28;20288;-63
2024/04/03 10:16:13;;;;;;;5.85;4.22;;;12.10;99.90;;;;;;5043450;28;20503;-63
2024/04/03 10:18:42;;;;;;;5.10;4.10;;;12.10;99.90;;;;;;5039433;28;20041;-63
2024/04/03 10:21:12;;;;;;;6.45;3.55;;;12.10;99.90;;;;;;5039727;28;20072;-62
2024/04/03 10:23:45;;;;;;;4.88;3.28;;;12.20;99.90;;;;;;5037073;28;20370;-63
2024/04/03 10:26:15;;;;;;;10.27;4.18;;;12.20;99.90;;;;;;5038765;28;20131;-62
2024/04/03 10:28:42;;;;;;;4.60;3.58;;;12.00;99.90;;;;;;5042084;28;20523;-63
2024/04/03 10:31:09;;;;;;;8.98;3.40;;;12.00;99.90;;;;;;5041322;28;20045;-63
2024/04/03 10:33:36;;;;;;;3.05;2.30;;;12.10;99.90;;;;;;5042817;28;20043;-63
2024/04/03 10:36:02;;;;;;;2.97;1.88;;;12.10;99.90;;;;;;5040257;28;20115;-63
2024/04/03 10:38:29;;;;;;;4.90;2.63;;;12.00;99.90;;;;;;5039877;28;20520;-63
2024/04/03 10:40:58;;;;;;;3.53;2.65;;;12.10;99.90;;;;;;5039170;28;20094;-63
2024/04/03 10:43:24;;;;;;;6.57;2.65;;;12.20;99.90;;;;;;5040739;28;20033;-63
2024/04/03 10:45:50;;;;;;;4.95;2.20;;;12.20;99.90;;;;;;5038936;28;20128;-62
2024/04/03 10:48:16;;;;;;;5.85;2.13;;;12.10;99.90;;;;;;5040454;28;20127;-62
2024/04/03 10:50:44;;;;;;;3.70;2.08;;;12.30;99.90;;;;;;5040065;28;20530;-63
2024/04/03 10:53:10;;;;;;;3.13;1.98;;;12.20;99.90;;;;;;5041959;28;20136;-63
2024/04/03 10:55:37;;;;;;;2.25;1.70;;;12.20;99.90;;;;;;5041195;28;20075;-63
2024/04/03 10:58:04;;;;;;;3.60;1.92;;;12.20;99.90;;;;;;5040863;28;20037;-63
2024/04/03 11:00:40;;;;;;;3.92;2.22;;;12.30;99.90;;;;;;5040602;28;20033;-62
2024/04/03 11:03:07;;;;;;;2.78;1.42;;;12.40;99.90;;;;;;5039643;28;20041;-62
2024/04/03 11:05:34;;;;;;;4.50;1.58;;;12.50;99.90;;;;;;5036864;28;20606;-62
2024/04/03 11:08:04;;;;;;;2.55;1.80;;;12.50;99.90;;;;;;5038879;28;20047;-63
2024/04/03 11:10:30;;;;;;;3.35;2.10;;;12.50;99.90;;;;;;5039543;28;20037;-62
2024/04/03 11:13:06;;;;;;;3.90;1.92;;;12.50;99.90;;;;;;5040505;28;20427;-63
2024/04/03 11:15:32;;;;;;;5.35;2.35;;;12.70;99.90;;;;;;5038820;28;20043;-63
2024/04/03 11:17:59;;;;;;;6.97;2.65;;;12.70;99.90;;;;;;5039972;28;20044;-62
2024/04/03 11:20:30;;;;;;;2.85;2.55;;;12.70;99.90;;;;;;5039227;28;20553;-63
2024/04/03 11:22:58;;;;;;;3.85;2.33;;;12.80;99.90;;;;;;5039850;28;20040;-63
2024/04/03 11:25:28;;;;;;;5.80;2.83;;;12.80;99.90;;;;;;5041112;28;20214;-63
2024/04/03 11:27:56;;;;;;;3.95;2.78;;;12.80;99.90;;;;;;5038447;28;20613;-62
2024/04/03 11:30:22;;;;;;;4.70;2.90;;;12.80;99.90;;;;;;5038764;28;20442;-63
2024/04/03 11:32:49;;;;;;;4.55;2.85;;;12.80;99.90;;;;;;5034549;28;20043;-63
2024/04/03 11:35:15;;;;;;;4.30;2.42;;;12.80;99.90;;;;;;5040277;28;20037;-62
2024/04/03 11:37:41;;;;;;;3.75;2.65;;;12.70;99.90;;;;;;5040246;28;20047;-63
2024/04/03 11:40:07;;;;;;;4.72;2.50;;;12.80;99.90;;;;;;5039643;28;20033;-63
2024/04/03 11:42:34;;;;;;;4.32;2.70;;;12.70;99.90;;;;;;5040475;28;21274;-63
2024/04/03 11:45:00;;;;;;;5.55;2.65;;;12.80;99.90;;;;;;5039374;28;20219;-63
2024/04/03 11:47:26;;;;;;;3.38;2.72;;;12.70;99.90;;;;;;5038282;28;20051;-62
2024/04/03 11:49:52;;;;;;;5.32;2.60;;;12.80;99.90;;;;;;5040963;28;21265;-63
2024/04/03 11:52:18;;;;;;;4.38;2.53;;;12.70;99.90;;;;;;5039276;28;20143;-63
2024/04/03 11:54:44;;;;;;;6.53;2.97;;;12.70;99.90;;;;;;5038601;28;20073;-63
2024/04/03 11:57:10;;;;;;;4.35;2.80;;;12.60;99.90;;;;;;5037741;28;20029;-62
2024/04/03 11:59:37;;;;;;;7.43;3.10;;;12.70;99.90;;;;;;5039940;28;20044;-63
2024/04/03 12:02:04;;;;;;;5.50;2.88;;;12.70;99.90;;;;;;5038625;28;20099;-62
2024/04/03 12:04:30;;;;;;;5.15;2.95;;;12.60;99.90;;;;;;5039784;28;20037;-63
2024/04/03 12:06:55;;;;;;;5.40;2.70;;;12.60;99.90;;;;;;5039093;28;20155;-63
2024/04/03 12:09:22;;;;;;;7.93;2.92;;;12.40;99.90;;;;;;5038142;28;20082;-62
2024/04/03 12:11:48;;;;;;;3.30;2.15;;;12.50;99.90;;;;;;5038922;28;20234;-62
2024/04/03 12:14:14;;;;;;;6.50;2.53;;;12.40;99.90;;;;;;5037175;28;20777;-63
2024/04/03 12:16:39;;;;;;;4.63;2.63;;;12.30;99.90;;;;;;5037483;28;20037;-62
2024/04/03 12:22:04;;;;;;;4.05;2.83;;;12.50;99.90;;;;;;5013495;28;20095;-63
2024/04/03 12:24:29;;;;;;;4.95;3.08;;;12.40;99.90;;;;;;5036922;28;20127;-63
2024/04/03 12:26:56;;;;;;;3.70;3.20;;;12.50;99.90;;;;;;5031102;28;20196;-62
2024/04/03 12:29:22;;;;;;;5.05;2.88;;;12.40;99.90;;;;;;5034281;28;20495;-63
2024/04/03 12:31:50;;;;;;;3.65;2.95;;;12.50;99.90;;;;;;5037901;28;20049;-62
2024/04/03 12:34:16;;;;;;;4.43;2.75;;;12.50;99.90;;;;;;5037910;28;20102;-63
2024/04/03 12:36:42;;;;;;;6.75;3.97;;;12.40;99.90;;;;;;5037574;28;20287;-63
2024/04/03 12:39:10;;;;;;;3.10;2.80;;;12.60;99.90;;;;;;5035905;28;20037;-62
2024/04/03 12:41:36;;;;;;;4.50;3.10;;;12.50;99.90;;;;;;5037747;28;20098;-63
2024/04/03 12:44:02;;;;;;;4.00;2.70;;;12.40;99.90;;;;;;5033185;28;20037;-63